Time;durP1;ratioP1;P1;durP2;ratioP2;P2;SDS_P1;SDS_P2;PMS_P1;PMS_P2;Temp;Humidity;BMP_temperature;BMP_pressure;BME280_temperature;BME280_humidity;BME280_pressure;Samples;Min_cycle;Max_cycle;Signal;HPM_P1;HPM_P2
2021/06/11 00:00:10;;;;;;;4.87;3.53;;;18.30;99.90;;;;;;4425636;32;20155;-83
2021/06/11 00:02:37;;;;;;;7.23;3.60;;;18.20;99.90;;;;;;4425937;32;20182;-82
2021/06/11 00:05:08;;;;;;;5.07;3.57;;;18.30;99.90;;;;;;4425747;32;20198;-81
2021/06/11 00:07:35;;;;;;;6.30;3.40;;;18.20;99.90;;;;;;4425607;32;20185;-80
2021/06/11 00:10:05;;;;;;;4.60;3.40;;;18.10;99.90;;;;;;4425053;32;20379;-82
2021/06/11 00:12:32;;;;;;;6.07;3.70;;;18.10;99.90;;;;;;4425644;32;20147;-82
2021/06/11 00:15:00;;;;;;;6.53;3.40;;;18.00;99.90;;;;;;4425586;32;20135;-81
2021/06/11 00:17:27;;;;;;;5.47;3.60;;;18.00;99.90;;;;;;4426518;32;20178;-81
2021/06/11 00:19:54;;;;;;;5.27;3.40;;;17.90;99.90;;;;;;4425350;32;20199;-82
2021/06/11 00:22:21;;;;;;;7.93;3.60;;;17.90;99.90;;;;;;4424892;32;20199;-82
2021/06/11 00:24:48;;;;;;;6.20;3.70;;;17.90;99.90;;;;;;4425345;32;20135;-82
2021/06/11 00:27:15;;;;;;;5.27;3.93;;;17.80;99.90;;;;;;4425304;32;20135;-82
2021/06/11 00:29:42;;;;;;;8.07;3.97;;;17.80;99.90;;;;;;4424432;32;20146;-81
2021/06/11 00:32:08;;;;;;;5.03;3.60;;;17.70;99.90;;;;;;4422463;32;20204;-83
2021/06/11 00:34:36;;;;;;;4.77;3.80;;;17.70;99.90;;;;;;4421610;32;20163;-84
2021/06/11 00:37:03;;;;;;;6.87;4.03;;;17.60;99.90;;;;;;4421589;32;20158;-84
2021/06/11 00:39:30;;;;;;;5.33;3.97;;;17.60;99.90;;;;;;4421660;32;20182;-84
2021/06/11 00:42:00;;;;;;;7.77;3.90;;;17.60;99.90;;;;;;4421548;32;20150;-84
2021/06/11 00:44:28;;;;;;;5.90;3.60;;;17.60;99.90;;;;;;4426509;32;20239;-84
2021/06/11 00:46:55;;;;;;;5.17;3.90;;;17.50;99.90;;;;;;4428856;32;20151;-84
2021/06/11 00:49:22;;;;;;;5.23;4.17;;;17.50;99.90;;;;;;4425945;32;20193;-84
2021/06/11 00:51:49;;;;;;;7.53;4.00;;;17.50;99.90;;;;;;4426537;32;20131;-84
2021/06/11 00:54:17;;;;;;;7.67;4.07;;;17.50;99.90;;;;;;4426495;32;20159;-84
2021/06/11 00:56:44;;;;;;;6.57;3.90;;;17.50;99.90;;;;;;4425043;32;20469;-84
2021/06/11 00:59:11;;;;;;;5.27;4.00;;;17.50;99.90;;;;;;4425940;32;20448;-83
2021/06/11 01:01:41;;;;;;;5.17;4.20;;;17.40;99.90;;;;;;4425113;32;20143;-83
2021/06/11 01:04:11;;;;;;;6.10;4.00;;;17.50;99.90;;;;;;4425349;32;20175;-83
2021/06/11 01:06:41;;;;;;;5.80;4.03;;;17.40;99.90;;;;;;4424753;32;20204;-83
2021/06/11 01:09:10;;;;;;;5.63;3.50;;;17.40;99.90;;;;;;4425058;32;20223;-83
2021/06/11 01:11:39;;;;;;;5.77;3.77;;;17.40;99.90;;;;;;4425671;32;20208;-83
2021/06/11 01:14:06;;;;;;;4.90;4.00;;;17.30;99.90;;;;;;4425377;32;20155;-83
2021/06/11 01:16:34;;;;;;;7.17;3.97;;;17.30;99.90;;;;;;4424166;32;20150;-83
2021/06/11 01:19:01;;;;;;;4.40;3.70;;;17.30;99.90;;;;;;4424598;32;20181;-83
2021/06/11 01:21:31;;;;;;;4.67;3.57;;;17.30;99.90;;;;;;4424595;32;20163;-83
2021/06/11 01:24:15;;;;;;;7.27;3.90;;;17.20;99.90;;;;;;4424736;32;20170;-83
2021/06/11 01:27:02;;;;;;;5.03;3.70;;;17.20;99.90;;;;;;4425870;32;20504;-84
2021/06/11 01:29:31;;;;;;;5.47;3.80;;;17.20;99.90;;;;;;4424528;32;20191;-84
2021/06/11 01:32:01;;;;;;;4.40;4.00;;;17.10;99.90;;;;;;4424462;32;20192;-83
2021/06/11 01:34:34;;;;;;;5.73;3.73;;;17.10;99.90;;;;;;4426253;32;20196;-84
2021/06/11 01:37:09;;;;;;;6.13;3.90;;;17.10;99.90;;;;;;4424731;32;20214;-84
2021/06/11 01:39:37;;;;;;;5.80;3.80;;;17.10;99.90;;;;;;4425542;32;20565;-84
2021/06/11 01:42:05;;;;;;;5.73;3.90;;;17.10;99.90;;;;;;4422722;32;20172;-84
2021/06/11 01:44:34;;;;;;;5.40;3.57;;;17.00;99.90;;;;;;4424320;32;20147;-84
2021/06/11 01:47:02;;;;;;;4.83;3.93;;;17.00;99.90;;;;;;4424623;32;20185;-84
2021/06/11 01:49:30;;;;;;;4.60;3.80;;;16.90;99.90;;;;;;4424339;32;20439;-84
2021/06/11 01:52:01;;;;;;;7.40;4.30;;;16.90;99.90;;;;;;4424416;32;20186;-84
2021/06/11 01:54:28;;;;;;;8.07;4.37;;;16.90;99.90;;;;;;4424527;32;20179;-84
2021/06/11 01:56:56;;;;;;;5.37;3.90;;;17.00;99.90;;;;;;4424196;32;20180;-84
2021/06/11 01:59:24;;;;;;;6.50;3.87;;;16.90;99.90;;;;;;4425670;32;20193;-84
2021/06/11 02:01:52;;;;;;;4.93;4.00;;;16.90;99.90;;;;;;4425338;32;20143;-85
2021/06/11 02:04:20;;;;;;;7.13;4.57;;;16.80;99.90;;;;;;4424946;32;20140;-84
2021/06/11 02:06:48;;;;;;;6.83;4.40;;;16.70;99.90;;;;;;4425127;32;20245;-83
2021/06/11 02:09:16;;;;;;;5.97;4.23;;;16.60;99.90;;;;;;4423048;32;20196;-83
2021/06/11 02:11:43;;;;;;;6.57;4.20;;;16.70;99.90;;;;;;4424486;32;20181;-85
2021/06/11 02:14:15;;;;;;;7.87;4.30;;;16.70;99.90;;;;;;4425904;32;20196;-85
2021/06/11 02:16:44;;;;;;;6.40;4.00;;;16.80;99.90;;;;;;4425527;32;20197;-84
2021/06/11 02:19:13;;;;;;;6.53;4.07;;;16.80;99.90;;;;;;4425000;32;20220;-84
2021/06/11 02:21:42;;;;;;;6.20;3.90;;;16.80;99.90;;;;;;4425055;32;20139;-84
2021/06/11 02:24:10;;;;;;;5.23;3.70;;;16.80;99.90;;;;;;4425562;32;20449;-84
2021/06/11 02:26:39;;;;;;;5.97;3.93;;;16.80;99.90;;;;;;4423039;32;20181;-84
2021/06/11 02:29:06;;;;;;;3.97;3.53;;;16.70;99.90;;;;;;4425196;32;20138;-84
2021/06/11 02:31:35;;;;;;;4.47;3.83;;;16.70;99.90;;;;;;4423931;32;20374;-84
2021/06/11 02:34:02;;;;;;;5.90;3.90;;;16.70;99.90;;;;;;4424054;32;20147;-83
2021/06/11 02:36:31;;;;;;;5.80;3.90;;;16.70;99.90;;;;;;4424162;32;20318;-83
2021/06/11 02:38:58;;;;;;;6.90;4.10;;;16.70;99.90;;;;;;4424035;32;20201;-84
2021/06/11 02:41:28;;;;;;;7.00;3.73;;;16.70;99.90;;;;;;4425406;32;20218;-84
2021/06/11 02:43:56;;;;;;;6.97;3.80;;;16.70;99.90;;;;;;4425747;32;20144;-83
2021/06/11 02:46:33;;;;;;;5.60;3.87;;;16.70;99.90;;;;;;4424231;32;20328;-84
2021/06/11 02:49:09;;;;;;;5.33;4.10;;;16.60;99.90;;;;;;4425470;32;20205;-84
2021/06/11 02:51:49;;;;;;;4.97;3.70;;;16.70;99.90;;;;;;4425646;32;20142;-84
2021/06/11 02:54:24;;;;;;;5.13;4.07;;;16.60;99.90;;;;;;4426250;32;20151;-84
2021/06/11 02:57:00;;;;;;;5.53;4.10;;;16.60;99.90;;;;;;4424707;32;20158;-85
2021/06/11 02:59:36;;;;;;;6.90;4.60;;;16.60;99.90;;;;;;4425252;32;20198;-84
2021/06/11 03:02:09;;;;;;;7.27;4.10;;;16.60;99.90;;;;;;4423934;32;20146;-84
2021/06/11 03:04:43;;;;;;;6.43;4.13;;;16.60;99.90;;;;;;4426981;32;20139;-84
2021/06/11 03:07:16;;;;;;;6.13;4.10;;;16.60;99.90;;;;;;4427253;32;20163;-84
2021/06/11 03:09:44;;;;;;;6.13;3.87;;;16.60;99.90;;;;;;4426668;32;20138;-85
2021/06/11 03:12:13;;;;;;;5.13;4.40;;;16.60;99.90;;;;;;4426440;32;20473;-85
2021/06/11 03:14:41;;;;;;;6.47;4.30;;;16.60;99.90;;;;;;4426635;32;20155;-84
2021/06/11 03:17:11;;;;;;;7.23;4.30;;;16.70;99.90;;;;;;4427862;32;20139;-84
2021/06/11 03:19:40;;;;;;;6.03;4.27;;;16.70;99.90;;;;;;4426431;32;20189;-84
2021/06/11 03:22:18;;;;;;;6.93;4.10;;;16.70;99.90;;;;;;4427897;32;20198;-84
2021/06/11 03:24:59;;;;;;;5.90;4.03;;;16.80;99.90;;;;;;4427163;32;20147;-85
2021/06/11 03:27:50;;;;;;;6.70;4.10;;;16.70;99.90;;;;;;4426476;32;20138;-84
2021/06/11 03:30:19;;;;;;;7.00;4.13;;;16.80;99.90;;;;;;4427132;32;20185;-84
2021/06/11 03:32:51;;;;;;;6.63;4.20;;;16.80;99.90;;;;;;4426346;32;20135;-85
2021/06/11 03:35:22;;;;;;;5.13;3.93;;;16.80;99.90;;;;;;4426447;32;20183;-84
2021/06/11 03:37:53;;;;;;;5.50;3.90;;;16.90;99.90;;;;;;4426399;32;20151;-84
2021/06/11 03:40:28;;;;;;;5.90;3.70;;;16.90;99.90;;;;;;4426974;32;20150;-84
2021/06/11 03:42:56;;;;;;;6.40;4.30;;;16.90;99.90;;;;;;4426683;32;20489;-84
2021/06/11 03:45:24;;;;;;;5.07;3.70;;;17.00;99.90;;;;;;4426167;32;20159;-84
2021/06/11 03:47:52;;;;;;;5.43;4.33;;;16.90;99.90;;;;;;4426207;32;20199;-84
2021/06/11 03:50:23;;;;;;;7.77;4.67;;;16.90;99.90;;;;;;4426298;32;20143;-84
2021/06/11 03:52:51;;;;;;;8.97;4.80;;;17.00;99.90;;;;;;4426837;32;20200;-84
2021/06/11 03:55:25;;;;;;;6.83;5.17;;;17.00;99.90;;;;;;4425981;32;20187;-84
2021/06/11 03:58:02;;;;;;;7.87;5.53;;;17.10;99.90;;;;;;4425898;32;20166;-84
2021/06/11 04:00:30;;;;;;;10.27;5.20;;;17.00;99.90;;;;;;4426351;32;20154;-83
2021/06/11 04:02:58;;;;;;;9.63;6.00;;;17.00;99.90;;;;;;4425672;32;20191;-84
2021/06/11 04:05:29;;;;;;;10.83;5.83;;;17.00;99.90;;;;;;4426180;32;20205;-84
2021/06/11 04:07:57;;;;;;;11.07;6.07;;;17.00;99.90;;;;;;4425626;32;20155;-84
2021/06/11 04:10:35;;;;;;;11.00;5.50;;;17.10;99.90;;;;;;4425487;32;20135;-84
2021/06/11 04:13:17;;;;;;;9.57;6.50;;;17.00;99.90;;;;;;4424915;32;20162;-84
2021/06/11 04:15:51;;;;;;;9.97;6.50;;;17.10;99.90;;;;;;4420908;32;20181;-84
2021/06/11 04:18:28;;;;;;;12.10;6.40;;;17.00;99.90;;;;;;4426898;32;20213;-84
2021/06/11 04:20:58;;;;;;;10.53;5.73;;;17.20;99.90;;;;;;4427133;32;20149;-84
2021/06/11 04:23:29;;;;;;;10.37;5.93;;;17.30;99.90;;;;;;4426796;32;20191;-84
2021/06/11 04:25:59;;;;;;;12.07;6.03;;;17.40;99.90;;;;;;4425933;32;20155;-84
2021/06/11 04:28:29;;;;;;;10.00;6.23;;;17.50;99.90;;;;;;4427200;32;20212;-84
2021/06/11 04:30:56;;;;;;;10.67;6.10;;;17.60;99.90;;;;;;4425067;32;20476;-84
2021/06/11 04:33:29;;;;;;;8.60;5.93;;;17.60;99.90;;;;;;4425445;32;20135;-85
2021/06/11 04:35:56;;;;;;;8.73;5.80;;;17.80;99.90;;;;;;4426907;32;20200;-85
2021/06/11 04:38:24;;;;;;;7.20;5.00;;;17.70;99.90;;;;;;4425241;32;20185;-85
2021/06/11 04:40:51;;;;;;;12.93;5.70;;;17.70;99.90;;;;;;4423658;32;20226;-77
2021/06/11 04:43:23;;;;;;;8.23;5.47;;;17.80;99.90;;;;;;4425029;32;20225;-79
2021/06/11 04:45:50;;;;;;;10.23;5.27;;;17.80;99.90;;;;;;4427123;32;20196;-79
2021/06/11 04:48:17;;;;;;;8.93;5.30;;;18.00;99.90;;;;;;4426537;32;20135;-79
2021/06/11 04:50:44;;;;;;;10.17;4.90;;;18.00;99.90;;;;;;4426193;32;20150;-79
2021/06/11 04:53:11;;;;;;;13.07;5.17;;;18.10;99.90;;;;;;4424892;32;20166;-77
2021/06/11 04:55:38;;;;;;;6.83;4.47;;;18.10;99.90;;;;;;4426425;32;20194;-79
2021/06/11 04:58:05;;;;;;;9.23;4.57;;;18.20;99.90;;;;;;4424695;32;20410;-79
2021/06/11 05:00:32;;;;;;;10.47;4.87;;;18.30;99.90;;;;;;4426104;32;20432;-78
2021/06/11 05:02:59;;;;;;;7.70;4.80;;;18.40;99.90;;;;;;4422800;32;20426;-79
2021/06/11 05:05:26;;;;;;;7.13;4.30;;;18.50;99.90;;;;;;4423381;32;20179;-78
2021/06/11 05:07:53;;;;;;;6.07;3.80;;;18.50;99.90;;;;;;4424694;32;20426;-79
2021/06/11 05:10:20;;;;;;;8.17;4.20;;;18.60;99.90;;;;;;4426100;32;20158;-79
2021/06/11 05:12:47;;;;;;;7.03;3.90;;;18.70;99.90;;;;;;4424468;32;20452;-81
2021/06/11 05:15:15;;;;;;;5.87;3.70;;;18.70;99.90;;;;;;4423488;32;20143;-79
2021/06/11 05:17:42;;;;;;;7.47;3.90;;;18.70;99.90;;;;;;4423955;32;20456;-79
2021/06/11 05:20:09;;;;;;;7.77;3.90;;;18.80;99.90;;;;;;4425373;32;20575;-79
2021/06/11 05:22:36;;;;;;;5.13;4.00;;;18.90;99.90;;;;;;4424607;32;20151;-79
2021/06/11 05:25:04;;;;;;;9.57;4.10;;;19.00;99.90;;;;;;4426181;32;20202;-80
2021/06/11 05:27:31;;;;;;;6.60;3.73;;;19.00;99.90;;;;;;4424100;32;20434;-78
2021/06/11 05:29:58;;;;;;;6.77;3.90;;;19.10;99.90;;;;;;4424739;32;20170;-79
2021/06/11 05:32:25;;;;;;;5.83;3.60;;;19.10;99.90;;;;;;4426042;32;20211;-79
2021/06/11 05:34:52;;;;;;;5.43;4.13;;;19.20;99.90;;;;;;4424343;32;20162;-79
2021/06/11 05:37:19;;;;;;;6.43;4.53;;;19.30;99.90;;;;;;4424193;32;20138;-79
2021/06/11 05:39:46;;;;;;;7.97;4.63;;;19.40;99.90;;;;;;4421467;32;20223;-81
2021/06/11 05:42:12;;;;;;;5.63;4.33;;;19.50;99.90;;;;;;4420255;32;20218;-80
2021/06/11 05:44:39;;;;;;;6.93;4.10;;;19.50;99.90;;;;;;4422184;32;20155;-82
2021/06/11 05:47:06;;;;;;;8.63;4.47;;;19.60;99.90;;;;;;4422593;32;20158;-86
2021/06/11 05:49:33;;;;;;;9.33;4.70;;;19.70;99.90;;;;;;4423617;32;20166;-82
2021/06/11 05:52:00;;;;;;;7.03;4.33;;;19.90;99.90;;;;;;4422164;32;20155;-71
2021/06/11 05:54:27;;;;;;;6.83;4.70;;;19.90;99.90;;;;;;4423510;32;20204;-72
2021/06/11 16:00:50;;;;;;;4.82;3.50;;;26.20;52.70;;;;;;5301804;27;20224;-76
2021/06/11 16:03:17;;;;;;;5.10;3.12;;;26.00;53.00;;;;;;5308811;27;20161;-76
2021/06/11 16:05:45;;;;;;;4.03;2.75;;;25.80;53.40;;;;;;5308631;27;20161;-75
2021/06/11 16:08:12;;;;;;;3.95;2.70;;;25.90;53.00;;;;;;5309318;27;20114;-75
2021/06/11 16:10:40;;;;;;;4.35;2.70;;;26.10;53.30;;;;;;5309931;27;20156;-75
2021/06/11 16:13:07;;;;;;;4.62;2.60;;;26.50;51.80;;;;;;5308510;27;20450;-75
2021/06/11 16:15:35;;;;;;;5.40;2.78;;;26.80;50.40;;;;;;5309649;27;20130;-75
2021/06/11 16:18:04;;;;;;;5.70;2.85;;;27.00;50.80;;;;;;5310789;27;20130;-77
2021/06/11 16:20:31;;;;;;;3.78;2.80;;;27.00;50.60;;;;;;5306159;27;20165;-75
2021/06/11 16:22:58;;;;;;;4.50;2.97;;;27.10;50.80;;;;;;5305060;27;20527;-76
2021/06/11 16:25:26;;;;;;;7.07;2.80;;;26.90;50.70;;;;;;5304609;27;20130;-76
2021/06/11 16:27:53;;;;;;;5.32;2.95;;;26.50;51.40;;;;;;5304878;27;20323;-77
2021/06/11 16:30:21;;;;;;;5.22;2.78;;;26.60;52.00;;;;;;5304540;27;20406;-77
2021/06/11 16:32:48;;;;;;;4.57;2.65;;;26.10;52.30;;;;;;5304943;27;20152;-78
2021/06/11 16:35:15;;;;;;;6.22;2.70;;;25.80;53.10;;;;;;5306994;27;20134;-78
2021/06/11 16:37:42;;;;;;;2.78;2.40;;;25.70;53.40;;;;;;5308555;27;20146;-78
2021/06/11 16:40:12;;;;;;;3.45;2.65;;;25.60;53.60;;;;;;5310433;27;20170;-78
2021/06/11 16:42:40;;;;;;;5.25;2.97;;;25.40;53.30;;;;;;5310756;27;20113;-77
2021/06/11 16:45:11;;;;;;;3.58;2.80;;;25.20;54.00;;;;;;5308068;27;20529;-78
2021/06/11 16:47:39;;;;;;;3.97;2.50;;;25.10;54.30;;;;;;5309419;27;20153;-79
2021/06/11 16:50:08;;;;;;;5.15;2.90;;;25.00;54.30;;;;;;5306555;27;20114;-78
2021/06/11 16:52:37;;;;;;;3.87;2.60;;;24.80;54.10;;;;;;5308239;27;20113;-79
2021/06/11 16:55:05;;;;;;;5.62;2.45;;;24.70;54.20;;;;;;5310010;27;20125;-79
2021/06/11 16:57:33;;;;;;;3.25;2.58;;;24.60;54.40;;;;;;5308786;27;20133;-78
2021/06/11 17:00:01;;;;;;;3.83;2.83;;;24.60;54.10;;;;;;5308239;27;20340;-77
2021/06/11 17:02:28;;;;;;;3.80;2.60;;;24.60;54.80;;;;;;5308760;27;20214;-78
2021/06/11 17:04:55;;;;;;;4.43;2.70;;;24.40;55.10;;;;;;5309111;27;20114;-77
2021/06/11 17:07:22;;;;;;;4.10;2.70;;;24.40;55.60;;;;;;5308120;27;20167;-78
2021/06/11 17:09:49;;;;;;;3.08;2.60;;;24.20;55.10;;;;;;5308473;27;20141;-78
2021/06/11 17:12:16;;;;;;;5.40;2.62;;;24.20;56.10;;;;;;5308577;27;20377;-77
2021/06/11 17:14:43;;;;;;;3.67;2.58;;;24.10;57.10;;;;;;5310249;27;20126;-77
2021/06/11 17:17:10;;;;;;;3.37;2.60;;;24.00;57.20;;;;;;5305682;27;20130;-76
2021/06/11 17:19:36;;;;;;;4.62;2.60;;;24.00;56.90;;;;;;5304736;27;20125;-76
2021/06/11 17:22:04;;;;;;;4.35;2.58;;;23.80;57.50;;;;;;5305431;27;20139;-76
2021/06/11 17:24:32;;;;;;;4.87;2.90;;;23.80;57.90;;;;;;5306780;27;20690;-74
2021/06/11 17:26:59;;;;;;;6.12;2.85;;;23.90;58.30;;;;;;5307629;27;20353;-77
2021/06/11 17:29:35;;;;;;;4.10;2.70;;;23.80;57.70;;;;;;5308327;27;20170;-77
2021/06/11 17:32:11;;;;;;;5.37;2.70;;;23.90;58.80;;;;;;5309494;27;20121;-75
2021/06/11 17:34:40;;;;;;;4.45;2.70;;;23.90;58.70;;;;;;5308708;27;20428;-76
2021/06/11 17:37:13;;;;;;;5.33;3.40;;;23.90;58.40;;;;;;5305655;27;20432;-76
2021/06/11 17:39:40;;;;;;;4.32;2.87;;;23.80;58.90;;;;;;5310533;27;20435;-76
2021/06/11 17:42:11;;;;;;;5.73;2.70;;;23.70;58.60;;;;;;5311012;27;20155;-76
2021/06/11 17:44:40;;;;;;;4.80;2.85;;;23.70;59.10;;;;;;5308624;27;20161;-76
2021/06/11 17:47:09;;;;;;;3.60;2.40;;;23.60;60.30;;;;;;5310131;27;20173;-76
2021/06/11 17:49:39;;;;;;;5.40;2.60;;;23.40;59.20;;;;;;5308157;27;20140;-74
2021/06/11 17:52:09;;;;;;;5.13;2.30;;;23.00;60.50;;;;;;5309051;27;20110;-71
2021/06/11 17:54:36;;;;;;;3.50;2.27;;;22.60;62.70;;;;;;5306727;27;20114;-76
2021/06/11 17:57:05;;;;;;;6.10;2.10;;;22.40;64.60;;;;;;5308802;27;20155;-78
2021/06/11 17:59:38;;;;;;;2.80;2.00;;;22.10;66.00;;;;;;5310040;27;20129;-81
2021/06/11 18:02:17;;;;;;;9.10;2.07;;;22.10;66.60;;;;;;5309751;27;20133;-81
2021/06/11 18:04:50;;;;;;;6.43;2.03;;;22.20;67.20;;;;;;5310335;27;20140;-81
2021/06/11 18:07:23;;;;;;;4.23;2.27;;;22.10;68.00;;;;;;5310858;27;20156;-81
2021/06/11 18:09:52;;;;;;;5.70;2.20;;;21.90;70.10;;;;;;5312082;27;20155;-81
2021/06/11 18:12:28;;;;;;;4.33;2.37;;;21.90;71.20;;;;;;5309909;27;20114;-80
2021/06/11 18:15:09;;;;;;;7.43;2.20;;;21.80;71.90;;;;;;5309804;27;20113;-77
2021/06/11 18:17:41;;;;;;;5.07;2.30;;;21.70;73.20;;;;;;5312059;27;20114;-80
2021/06/11 18:20:23;;;;;;;6.17;1.90;;;21.50;74.80;;;;;;5311765;27;20151;-81
2021/06/11 18:22:50;;;;;;;4.23;2.30;;;21.30;77.30;;;;;;5312142;27;20117;-80
2021/06/11 18:25:24;;;;;;;7.63;3.13;;;21.20;79.50;;;;;;5309221;27;20122;-78
2021/06/11 18:27:53;;;;;;;6.17;2.57;;;21.20;80.40;;;;;;5309314;27;20138;-79
2021/06/11 18:30:21;;;;;;;8.77;5.30;;;21.00;81.50;;;;;;5309675;27;20145;-79
2021/06/11 18:32:48;;;;;;;3.77;2.57;;;20.90;82.40;;;;;;5309804;27;20360;-80
2021/06/11 18:35:18;;;;;;;4.97;2.10;;;20.90;82.70;;;;;;5308821;27;20130;-79
2021/06/11 18:37:57;;;;;;;4.77;2.03;;;21.00;82.30;;;;;;5311028;27;20171;-80
2021/06/11 18:40:28;;;;;;;4.73;1.90;;;20.90;81.30;;;;;;5309080;27;20387;-80
2021/06/11 18:43:06;;;;;;;3.90;2.20;;;20.90;82.20;;;;;;5309502;27;20161;-80
2021/06/11 18:45:43;;;;;;;7.30;2.70;;;20.80;82.40;;;;;;5311126;27;20136;-80
2021/06/11 18:51:09;;;;;;;8.17;2.90;;;20.50;86.30;;;;;;5311681;27;20117;-79
2021/06/11 18:53:42;;;;;;;4.87;2.70;;;20.40;87.90;;;;;;5311691;27;20113;-80
2021/06/11 18:56:10;;;;;;;5.37;2.83;;;20.40;89.00;;;;;;5310284;27;20132;-80
2021/06/11 18:58:41;;;;;;;4.63;2.73;;;20.30;90.30;;;;;;5309588;27;20165;-80
2021/06/11 19:01:23;;;;;;;6.30;2.90;;;20.20;91.20;;;;;;5310630;27;20192;-81
2021/06/11 19:04:17;;;;;;;5.90;2.77;;;20.00;91.90;;;;;;5309965;27;20435;-79
2021/06/11 19:06:55;;;;;;;4.27;2.60;;;19.90;92.60;;;;;;5310273;27;20134;-80
2021/06/11 19:09:22;;;;;;;6.53;3.23;;;19.80;93.10;;;;;;5310566;27;20129;-80
2021/06/11 19:11:49;;;;;;;5.77;2.90;;;19.70;93.20;;;;;;5308937;27;20431;-80
2021/06/11 19:14:18;;;;;;;5.50;2.80;;;19.70;93.40;;;;;;5309826;27;20176;-80
2021/06/11 19:16:46;;;;;;;6.10;2.83;;;19.60;93.70;;;;;;5309718;27;20125;-80
2021/06/11 19:19:19;;;;;;;5.37;2.70;;;19.50;94.20;;;;;;5309477;27;20114;-80
2021/06/11 19:21:57;;;;;;;7.30;2.90;;;19.40;94.90;;;;;;5311661;27;20178;-80
2021/06/11 19:24:37;;;;;;;4.73;3.20;;;19.20;96.10;;;;;;5311048;27;20132;-80
2021/06/11 19:27:34;;;;;;;5.27;3.03;;;19.30;97.60;;;;;;5309543;27;20121;-79
2021/06/11 19:30:26;;;;;;;6.90;3.30;;;19.10;98.80;;;;;;5309320;27;20174;-80
2021/06/11 19:33:14;;;;;;;7.70;3.40;;;19.00;99.90;;;;;;5309320;27;20383;-79
2021/06/11 19:35:43;;;;;;;4.60;3.23;;;18.90;99.90;;;;;;5312169;27;20351;-79
2021/06/11 19:38:25;;;;;;;8.50;3.30;;;18.80;99.90;;;;;;5311552;27;20109;-80
2021/06/11 19:40:54;;;;;;;7.17;3.20;;;18.80;99.90;;;;;;5309772;27;20347;-81
2021/06/11 19:43:40;;;;;;;10.13;3.97;;;18.80;99.90;;;;;;5309475;27;20125;-82
2021/06/11 19:46:11;;;;;;;4.93;3.27;;;18.60;99.90;;;;;;5309423;27;20109;-81
2021/06/11 19:48:39;;;;;;;8.10;4.27;;;18.60;99.90;;;;;;5309623;27;20536;-81
2021/06/11 19:51:09;;;;;;;7.73;3.90;;;18.30;99.90;;;;;;5310812;27;20114;-79
2021/06/11 19:53:38;;;;;;;6.67;3.33;;;18.40;99.90;;;;;;5311322;27;20500;-82
2021/06/11 19:56:09;;;;;;;7.43;3.47;;;18.40;99.90;;;;;;5311410;27;20157;-83
2021/06/11 19:58:40;;;;;;;5.47;3.57;;;18.40;99.90;;;;;;5309512;27;20114;-80
2021/06/11 20:01:20;;;;;;;8.87;3.40;;;18.40;99.90;;;;;;5308934;27;20145;-80
2021/06/11 20:03:49;;;;;;;7.27;3.60;;;18.40;99.90;;;;;;5309531;27;20182;-81
2021/06/11 20:06:19;;;;;;;5.90;3.17;;;18.40;99.90;;;;;;5307589;27;20185;-81
2021/06/11 20:08:48;;;;;;;4.50;3.30;;;18.40;99.90;;;;;;5309155;27;20503;-80
2021/06/11 20:11:18;;;;;;;5.07;3.70;;;18.30;99.90;;;;;;5310788;27;20114;-81
2021/06/11 20:13:46;;;;;;;8.47;3.73;;;18.30;99.90;;;;;;5311303;27;20118;-82
2021/06/11 20:16:14;;;;;;;5.77;3.50;;;18.30;99.90;;;;;;5309399;27;20153;-80
2021/06/11 20:18:42;;;;;;;6.53;3.13;;;18.30;99.90;;;;;;5309321;27;20498;-80
2021/06/11 20:21:11;;;;;;;6.03;3.40;;;18.30;99.90;;;;;;5308803;27;20182;-80
2021/06/11 20:23:43;;;;;;;6.03;3.53;;;18.20;99.90;;;;;;5310303;27;20406;-81
2021/06/11 20:26:13;;;;;;;4.70;3.40;;;18.10;99.90;;;;;;5310837;27;20157;-80
2021/06/11 20:28:41;;;;;;;6.10;3.43;;;18.10;99.90;;;;;;5309776;27;20468;-81
2021/06/11 20:31:11;;;;;;;5.57;3.20;;;18.10;99.90;;;;;;5311332;27;20178;-80
2021/06/11 20:33:38;;;;;;;6.27;3.57;;;18.10;99.90;;;;;;5309135;27;20156;-63
2021/06/11 20:36:06;;;;;;;5.17;3.67;;;18.10;99.90;;;;;;5311009;27;20105;-62
2021/06/11 20:38:34;;;;;;;5.00;3.60;;;18.10;99.90;;;;;;5309268;27;20115;-62
2021/06/11 20:41:02;;;;;;;7.33;3.97;;;18.10;99.90;;;;;;5310972;27;20373;-62
2021/06/11 20:43:30;;;;;;;5.43;3.77;;;18.00;99.90;;;;;;5310802;27;20118;-62
2021/06/11 20:45:57;;;;;;;8.10;4.20;;;18.00;99.90;;;;;;5309089;27;20121;-62
2021/06/11 20:48:24;;;;;;;5.77;3.50;;;17.90;99.90;;;;;;5310845;27;20396;-62
2021/06/11 20:50:51;;;;;;;4.23;3.60;;;17.90;99.90;;;;;;5310294;27;20148;-62
2021/06/11 20:53:18;;;;;;;8.60;4.53;;;17.80;99.90;;;;;;5310018;27;20145;-62
2021/06/11 20:55:45;;;;;;;6.50;4.20;;;17.70;99.90;;;;;;5310935;27;20109;-62
2021/06/11 20:58:12;;;;;;;8.23;4.77;;;17.70;99.90;;;;;;5309456;27;20154;-61
2021/06/11 21:00:39;;;;;;;6.33;4.50;;;17.70;99.90;;;;;;5311291;27;20137;-62
2021/06/11 21:03:08;;;;;;;7.07;4.30;;;17.70;99.90;;;;;;5310897;27;20378;-62
2021/06/11 21:05:36;;;;;;;7.67;4.23;;;17.80;99.90;;;;;;5311114;27;20151;-62
2021/06/11 21:08:03;;;;;;;5.53;3.83;;;17.80;99.90;;;;;;5310889;27;20431;-62
2021/06/11 21:10:30;;;;;;;4.30;3.60;;;17.80;99.90;;;;;;5309549;27;20110;-62
2021/06/11 21:12:57;;;;;;;7.03;3.67;;;17.70;99.90;;;;;;5311019;27;20163;-62
2021/06/11 21:15:25;;;;;;;5.00;4.03;;;17.70;99.90;;;;;;5309336;27;20153;-62
2021/06/11 21:17:52;;;;;;;6.57;3.90;;;17.70;99.90;;;;;;5311098;27;20122;-62
2021/06/11 21:20:20;;;;;;;6.13;4.37;;;17.70;99.90;;;;;;5310974;27;20420;-62
2021/06/11 21:22:47;;;;;;;6.17;4.20;;;17.60;99.90;;;;;;5309036;27;20109;-62
2021/06/11 21:25:17;;;;;;;8.33;4.10;;;17.70;99.90;;;;;;5310975;27;20452;-62
2021/06/11 21:27:45;;;;;;;5.97;4.10;;;17.70;99.90;;;;;;5310609;27;20155;-62
2021/06/11 21:30:15;;;;;;;7.00;4.10;;;17.70;99.90;;;;;;5309047;27;20503;-62
2021/06/11 21:32:43;;;;;;;6.87;4.00;;;17.70;99.90;;;;;;5311037;27;20113;-62
2021/06/11 21:35:11;;;;;;;7.10;4.50;;;17.60;99.90;;;;;;5310971;27;20110;-62
2021/06/11 21:37:38;;;;;;;7.63;4.70;;;17.50;99.90;;;;;;5311009;27;20111;-62
2021/06/11 21:40:09;;;;;;;7.57;4.50;;;17.50;99.90;;;;;;5308638;27;20110;-61
2021/06/11 21:42:36;;;;;;;7.57;4.60;;;17.50;99.90;;;;;;5311046;27;20150;-61
2021/06/11 21:45:06;;;;;;;7.93;5.00;;;17.50;99.90;;;;;;5310472;27;20122;-62
2021/06/11 21:47:36;;;;;;;9.17;5.33;;;17.60;99.90;;;;;;5311025;27;20161;-62
2021/06/11 21:50:05;;;;;;;10.90;5.30;;;17.50;99.90;;;;;;5309598;27;20114;-62
2021/06/11 21:52:32;;;;;;;8.30;5.10;;;17.40;99.90;;;;;;5308116;27;20152;-62
2021/06/11 21:55:00;;;;;;;7.13;4.77;;;17.30;99.90;;;;;;5307087;27;20149;-62
2021/06/11 21:57:27;;;;;;;8.20;4.97;;;17.30;99.90;;;;;;5308177;27;20122;-72
2021/06/11 21:59:54;;;;;;;9.60;5.13;;;17.40;99.90;;;;;;5308047;27;20351;-62
2021/06/11 22:02:21;;;;;;;8.40;5.37;;;17.40;99.90;;;;;;5306430;27;20149;-62
2021/06/11 22:04:50;;;;;;;31.60;6.10;;;17.40;99.90;;;;;;5306234;27;20121;-63
2021/06/11 22:07:17;;;;;;;8.43;5.33;;;17.40;99.90;;;;;;5308066;27;20118;-63
2021/06/11 22:09:44;;;;;;;7.20;5.70;;;17.40;99.90;;;;;;5310816;27;20428;-63
2021/06/11 22:12:11;;;;;;;8.70;5.73;;;17.30;99.90;;;;;;5310693;27;20150;-63
2021/06/11 22:14:38;;;;;;;7.50;5.30;;;17.30;99.90;;;;;;5310618;27;20125;-63
2021/06/11 22:17:04;;;;;;;9.90;5.67;;;17.30;99.90;;;;;;5310541;27;20154;-64
2021/06/11 22:19:31;;;;;;;10.00;5.70;;;17.30;99.90;;;;;;5310945;27;20113;-63
2021/06/11 22:21:58;;;;;;;10.87;5.90;;;17.30;99.90;;;;;;5310800;27;20117;-63
2021/06/11 22:24:26;;;;;;;9.33;5.43;;;17.30;99.90;;;;;;5310812;27;20117;-64
2021/06/11 22:26:54;;;;;;;8.57;5.73;;;17.20;99.90;;;;;;5310963;27;20129;-63
2021/06/11 22:29:21;;;;;;;11.37;5.73;;;17.20;99.90;;;;;;5310719;27;20129;-64
2021/06/11 22:31:48;;;;;;;8.57;6.23;;;17.20;99.90;;;;;;5310755;27;20159;-63
2021/06/11 22:34:15;;;;;;;8.60;5.47;;;17.10;99.90;;;;;;5310457;27;20109;-64
2021/06/11 22:36:44;;;;;;;8.10;5.73;;;17.10;99.90;;;;;;5310714;27;20133;-63
2021/06/11 22:39:12;;;;;;;8.43;5.47;;;17.00;99.90;;;;;;5310112;27;20114;-64
2021/06/11 22:41:39;;;;;;;8.67;5.80;;;17.10;99.90;;;;;;5310465;27;20110;-64
2021/06/11 22:44:09;;;;;;;8.20;5.83;;;17.00;99.90;;;;;;5311151;27;20109;-63
2021/06/11 22:46:37;;;;;;;7.43;5.20;;;17.00;99.90;;;;;;5312113;27;20110;-63
2021/06/11 22:49:06;;;;;;;10.77;6.07;;;17.00;99.90;;;;;;5311997;27;20121;-63
2021/06/11 22:51:33;;;;;;;9.07;6.00;;;17.00;99.90;;;;;;5311994;27;20133;-63
2021/06/11 22:54:00;;;;;;;8.17;5.70;;;17.00;99.90;;;;;;5311986;27;20134;-63
2021/06/11 22:56:28;;;;;;;8.93;5.83;;;16.90;99.90;;;;;;5312008;27;20157;-63
2021/06/11 22:58:55;;;;;;;8.97;5.63;;;17.00;99.90;;;;;;5311982;27;20150;-63
2021/06/11 23:01:22;;;;;;;8.53;5.80;;;16.80;99.90;;;;;;5311790;27;20241;-63
2021/06/11 23:03:49;;;;;;;8.93;5.93;;;16.80;99.90;;;;;;5311985;27;20394;-63